Time;durP1;ratioP1;P1;durP2;ratioP2;P2;SDS_P1;SDS_P2;PMS_P1;PMS_P2;Temp;Humidity;BMP_temperature;BMP_pressure;BME280_temperature;BME280_humidity;BME280_pressure;Samples;Min_cycle;Max_cycle;Signal;HPM_P1;HPM_P2
2022/07/15 00:00:19;;;;;;;3.95;2.58;;;27.20;96.70;;;;;;4869902;29;20522;-76
2022/07/15 00:02:47;;;;;;;3.25;2.70;;;27.30;96.70;;;;;;4868768;29;20385;-77
2022/07/15 00:05:15;;;;;;;4.63;2.90;;;27.30;96.70;;;;;;4856235;29;20397;-77
2022/07/15 00:07:43;;;;;;;3.55;3.17;;;27.20;96.70;;;;;;4869115;29;20049;-77
2022/07/15 00:10:14;;;;;;;2.95;2.65;;;27.10;96.70;;;;;;4854627;29;20048;-77
2022/07/15 00:12:42;;;;;;;3.92;3.00;;;27.10;96.70;;;;;;4857155;29;20052;-77
2022/07/15 00:15:12;;;;;;;4.68;2.78;;;27.10;96.70;;;;;;4882776;29;20049;-77
2022/07/15 00:17:41;;;;;;;5.60;2.95;;;27.20;96.70;;;;;;4869830;29;20515;-77
2022/07/15 00:20:10;;;;;;;4.43;2.88;;;27.20;96.70;;;;;;4873415;29;20041;-77
2022/07/15 00:22:39;;;;;;;3.45;2.67;;;27.30;96.70;;;;;;4873584;29;20060;-77
2022/07/15 00:25:08;;;;;;;3.25;2.90;;;27.20;96.70;;;;;;4873016;29;20061;-77
2022/07/15 00:27:50;;;;;;;3.13;2.47;;;27.20;96.70;;;;;;4869922;29;20583;-77
2022/07/15 00:30:20;;;;;;;3.72;3.05;;;27.10;96.70;;;;;;4875433;29;20550;-77
2022/07/15 00:32:48;;;;;;;3.38;2.70;;;27.00;96.70;;;;;;4864576;29;20739;-77
2022/07/15 00:35:16;;;;;;;4.03;2.65;;;27.00;96.70;;;;;;4872637;29;20053;-77
2022/07/15 00:37:44;;;;;;;5.35;2.90;;;26.90;96.70;;;;;;4871064;29;20559;-76
2022/07/15 00:40:12;;;;;;;4.57;2.78;;;26.90;96.70;;;;;;4871706;29;20081;-77
2022/07/15 00:42:44;;;;;;;5.30;2.92;;;26.80;96.70;;;;;;4871725;29;20136;-77
2022/07/15 00:45:13;;;;;;;4.90;2.80;;;26.90;96.70;;;;;;4873703;29;20052;-77
2022/07/15 00:47:43;;;;;;;4.07;2.58;;;26.90;96.70;;;;;;4871978;29;20108;-77
2022/07/15 00:50:12;;;;;;;3.80;2.60;;;26.80;96.70;;;;;;4873411;29;20045;-77
2022/07/15 00:52:43;;;;;;;5.05;3.30;;;26.80;96.70;;;;;;4872750;29;20056;-77
2022/07/15 00:55:13;;;;;;;3.95;2.70;;;26.80;96.70;;;;;;4867383;29;20057;-77
2022/07/15 00:57:43;;;;;;;2.70;2.50;;;26.70;96.70;;;;;;4883309;29;20303;-77
2022/07/15 01:00:12;;;;;;;4.68;2.60;;;26.70;96.70;;;;;;4873254;29;20052;-77
2022/07/15 01:02:49;;;;;;;4.35;2.85;;;26.70;96.70;;;;;;4873669;29;20065;-77
2022/07/15 01:05:19;;;;;;;4.05;3.00;;;26.70;96.70;;;;;;4870126;29;20063;-77
2022/07/15 01:07:49;;;;;;;4.80;2.65;;;26.80;96.70;;;;;;4871487;29;20060;-77
2022/07/15 01:10:18;;;;;;;4.78;2.50;;;26.70;96.70;;;;;;4872448;29;20057;-77
2022/07/15 01:12:47;;;;;;;3.45;2.83;;;26.70;96.70;;;;;;4871629;29;20093;-77
2022/07/15 01:15:17;;;;;;;2.58;2.33;;;26.60;96.70;;;;;;4855822;29;20045;-77
2022/07/15 01:17:47;;;;;;;3.13;2.13;;;26.60;96.70;;;;;;4889432;29;20061;-77
2022/07/15 01:20:16;;;;;;;2.97;2.17;;;26.60;96.70;;;;;;4856394;29;20076;-77
2022/07/15 01:22:58;;;;;;;2.90;2.58;;;26.70;96.70;;;;;;4873152;29;20053;-77
2022/07/15 01:25:53;;;;;;;2.97;2.20;;;26.60;96.70;;;;;;4852894;29;20270;-77
2022/07/15 01:28:22;;;;;;;2.58;2.38;;;26.50;96.70;;;;;;4890380;29;20049;-77
2022/07/15 01:30:52;;;;;;;3.45;2.50;;;26.40;96.70;;;;;;4870428;29;20057;-77
2022/07/15 01:33:21;;;;;;;2.85;2.20;;;26.30;96.70;;;;;;4869790;29;20151;-77
2022/07/15 01:35:50;;;;;;;2.65;2.45;;;26.30;96.70;;;;;;4871176;29;20612;-77
2022/07/15 01:38:21;;;;;;;3.92;2.35;;;26.40;96.70;;;;;;4871319;29;20516;-76
2022/07/15 01:40:56;;;;;;;3.40;2.70;;;26.40;96.70;;;;;;4886075;29;20060;-78
2022/07/15 01:43:24;;;;;;;3.88;2.53;;;26.40;96.70;;;;;;4868602;29;20106;-77
2022/07/15 01:45:53;;;;;;;3.10;2.38;;;26.50;96.70;;;;;;4868623;29;20056;-77
2022/07/15 01:51:34;;;;;;;3.20;2.80;;;26.30;96.70;;;;;;4872817;29;20060;-77
2022/07/15 01:54:05;;;;;;;4.28;2.65;;;26.30;96.70;;;;;;4857569;29;20076;-78
2022/07/15 01:56:36;;;;;;;2.50;2.30;;;26.30;96.70;;;;;;4887291;29;20048;-77
2022/07/15 01:59:05;;;;;;;4.18;2.90;;;26.20;96.70;;;;;;4871025;29;20057;-77
2022/07/15 02:01:34;;;;;;;3.47;3.17;;;26.20;96.70;;;;;;4853214;29;20049;-77
2022/07/15 02:04:07;;;;;;;4.28;2.78;;;26.30;96.70;;;;;;4874362;29;20048;-77
2022/07/15 02:06:36;;;;;;;3.08;2.58;;;26.30;96.70;;;;;;4870769;29;20084;-78
2022/07/15 02:09:06;;;;;;;3.83;2.97;;;26.30;96.70;;;;;;4872953;29;20040;-77
2022/07/15 02:11:39;;;;;;;4.25;3.65;;;26.30;96.70;;;;;;4862364;29;20513;-77
2022/07/15 02:14:08;;;;;;;5.07;3.95;;;26.10;96.70;;;;;;4869929;29;20069;-77
2022/07/15 02:16:36;;;;;;;4.07;2.92;;;26.00;96.70;;;;;;4870495;29;20052;-77
2022/07/15 02:19:08;;;;;;;3.10;2.70;;;25.90;96.70;;;;;;4855289;29;20521;-77
2022/07/15 02:21:36;;;;;;;3.58;2.97;;;26.00;96.70;;;;;;4883369;29;20053;-77
2022/07/15 02:24:06;;;;;;;4.82;3.05;;;25.90;96.70;;;;;;4867599;29;20056;-77
2022/07/15 02:26:35;;;;;;;2.88;2.60;;;25.80;96.70;;;;;;4885563;29;20061;-77
2022/07/15 02:29:04;;;;;;;3.75;2.55;;;25.90;96.70;;;;;;4869518;29;20060;-77
2022/07/15 02:31:32;;;;;;;4.35;2.53;;;26.00;96.70;;;;;;4872170;29;20052;-77
2022/07/15 02:34:00;;;;;;;3.28;2.22;;;25.90;96.70;;;;;;4868487;29;20133;-77
2022/07/15 02:36:29;;;;;;;2.72;2.30;;;25.90;96.70;;;;;;4870677;29;20045;-76
2022/07/15 02:38:57;;;;;;;3.38;2.65;;;25.90;96.70;;;;;;4869169;29;20052;-76
2022/07/15 02:41:26;;;;;;;2.72;2.38;;;25.90;96.70;;;;;;4869667;29;20072;-77
2022/07/15 02:43:55;;;;;;;4.15;2.40;;;25.80;96.70;;;;;;4869395;29;20226;-77
2022/07/15 02:46:23;;;;;;;2.83;2.13;;;25.70;96.70;;;;;;4870081;29;20520;-77
2022/07/15 02:48:53;;;;;;;2.80;2.30;;;25.80;96.70;;;;;;4869521;29;20428;-77
2022/07/15 02:51:24;;;;;;;2.40;2.08;;;25.80;96.70;;;;;;4869714;29;20072;-76
2022/07/15 02:53:52;;;;;;;2.72;2.33;;;25.80;96.70;;;;;;4866470;29;20053;-77
2022/07/15 02:56:23;;;;;;;2.00;1.83;;;25.60;96.70;;;;;;4882601;29;20583;-77
2022/07/15 02:58:53;;;;;;;3.30;2.17;;;25.70;96.70;;;;;;4884581;29;20516;-77
2022/07/15 03:01:21;;;;;;;3.72;2.20;;;25.80;96.70;;;;;;4867611;29;20045;-77
2022/07/15 03:03:53;;;;;;;2.63;2.33;;;25.70;96.70;;;;;;4869280;29;20056;-77
2022/07/15 03:06:22;;;;;;;4.70;2.58;;;25.70;96.70;;;;;;4868947;29;20237;-77
2022/07/15 03:08:51;;;;;;;2.50;2.30;;;25.70;96.70;;;;;;4869710;29;20048;-77
2022/07/15 03:11:20;;;;;;;2.60;2.33;;;25.70;96.70;;;;;;4869561;29;20080;-77
2022/07/15 03:13:50;;;;;;;2.40;2.20;;;25.70;96.70;;;;;;4855700;29;20420;-76
2022/07/15 03:16:20;;;;;;;2.47;2.28;;;25.70;96.70;;;;;;4884591;29;20483;-77
2022/07/15 03:18:51;;;;;;;4.10;2.88;;;25.60;96.70;;;;;;4871999;29;20049;-77
2022/07/15 03:21:21;;;;;;;3.30;2.50;;;25.60;96.70;;;;;;4868986;29;20890;-76
2022/07/15 03:23:50;;;;;;;3.40;2.60;;;25.60;96.70;;;;;;4869603;29;20105;-76
2022/07/15 03:26:18;;;;;;;3.75;2.72;;;25.40;96.70;;;;;;4879017;29;20053;-77
2022/07/15 03:28:46;;;;;;;3.88;2.72;;;25.40;96.70;;;;;;4883990;29;20076;-77
2022/07/15 03:31:15;;;;;;;3.47;2.47;;;25.30;96.70;;;;;;4884457;29;20310;-76
2022/07/15 03:33:45;;;;;;;2.50;2.30;;;25.20;96.70;;;;;;4854288;29;20052;-76
2022/07/15 03:36:24;;;;;;;3.80;2.63;;;25.20;96.70;;;;;;4876516;29;20055;-77
2022/07/15 03:38:53;;;;;;;3.30;2.67;;;25.10;96.70;;;;;;4869460;29;20061;-77
2022/07/15 03:41:22;;;;;;;3.58;2.50;;;25.10;96.70;;;;;;4887327;29;20572;-76
2022/07/15 03:43:50;;;;;;;2.92;2.63;;;25.00;96.70;;;;;;4870131;29;20056;-77
2022/07/15 03:46:19;;;;;;;2.83;2.58;;;25.00;96.70;;;;;;4871763;29;20059;-77
2022/07/15 03:48:54;;;;;;;3.10;2.80;;;25.00;96.70;;;;;;4888906;29;20060;-77
2022/07/15 03:51:30;;;;;;;3.33;2.67;;;25.00;96.70;;;;;;4874648;29;20052;-76
2022/07/15 03:53:58;;;;;;;;;;;24.90;96.70;;;;;;4874988;29;20053;-76
2022/07/15 03:56:27;;;;;;;3.08;2.78;;;24.90;96.70;;;;;;4870427;29;19927;-77
2022/07/15 03:58:56;;;;;;;3.97;2.65;;;24.90;96.70;;;;;;4869756;29;20058;-76
2022/07/15 04:01:24;;;;;;;3.67;2.83;;;24.90;96.70;;;;;;4872755;29;20052;-77
2022/07/15 04:03:56;;;;;;;2.85;2.50;;;24.80;96.70;;;;;;4869286;29;20144;-77
2022/07/15 04:06:25;;;;;;;3.38;3.08;;;24.70;96.70;;;;;;4873407;29;20124;-77
2022/07/15 04:08:53;;;;;;;6.07;3.40;;;24.70;96.70;;;;;;4873714;29;20064;-77
2022/07/15 04:11:23;;;;;;;4.10;3.05;;;24.80;96.70;;;;;;4853418;29;20465;-77
2022/07/15 04:13:51;;;;;;;3.20;2.90;;;25.00;96.70;;;;;;4871736;29;20503;-78
2022/07/15 04:16:19;;;;;;;3.95;3.17;;;25.00;96.70;;;;;;4869740;29;20049;-77
2022/07/15 04:18:51;;;;;;;3.55;3.25;;;25.00;96.70;;;;;;4856326;29;20197;-77
2022/07/15 04:21:23;;;;;;;4.82;3.30;;;25.00;96.70;;;;;;4870249;29;20049;-77
2022/07/15 04:23:51;;;;;;;4.10;3.42;;;25.10;96.70;;;;;;4876719;29;20068;-77
2022/07/15 04:26:19;;;;;;;4.63;3.67;;;25.10;96.70;;;;;;4872161;29;20049;-77
2022/07/15 04:28:48;;;;;;;4.63;3.75;;;25.20;96.70;;;;;;4871962;29;20073;-76
2022/07/15 04:31:17;;;;;;;5.47;3.65;;;25.20;96.70;;;;;;4887924;29;20500;-77
2022/07/15 04:33:54;;;;;;;4.85;4.10;;;25.30;96.70;;;;;;4871864;29;20053;-77
2022/07/15 04:36:24;;;;;;;5.70;3.50;;;25.30;96.70;;;;;;4872422;29;20459;-77
2022/07/15 04:38:52;;;;;;;5.28;3.78;;;25.30;96.70;;;;;;4856437;29;20079;-78
2022/07/15 04:41:21;;;;;;;5.13;3.30;;;25.20;96.70;;;;;;4859255;29;20592;-77
2022/07/15 04:43:49;;;;;;;6.07;3.78;;;25.10;96.70;;;;;;4871655;29;20041;-76
2022/07/15 04:46:17;;;;;;;6.78;3.67;;;25.20;96.70;;;;;;4871853;29;20053;-77
2022/07/15 04:51:39;;;;;;;4.15;3.45;;;25.20;96.70;;;;;;4869392;29;20053;-76
2022/07/15 04:54:09;;;;;;;3.38;2.70;;;25.30;96.70;;;;;;4871915;29;20524;-77
2022/07/15 04:56:38;;;;;;;4.15;3.10;;;25.30;96.70;;;;;;4856185;29;20109;-77
2022/07/15 04:59:08;;;;;;;4.00;3.30;;;25.30;96.70;;;;;;4871518;29;20055;-75
2022/07/15 05:01:36;;;;;;;3.22;2.70;;;25.30;96.70;;;;;;4854095;29;20393;-76
2022/07/15 05:04:04;;;;;;;3.72;2.90;;;25.30;96.70;;;;;;4887551;29;20040;-77
2022/07/15 05:06:32;;;;;;;6.72;3.42;;;25.20;96.70;;;;;;4870532;29;20052;-76
2022/07/15 05:09:04;;;;;;;5.78;2.90;;;25.20;96.70;;;;;;4883370;29;20053;-77
2022/07/15 05:11:34;;;;;;;5.53;3.08;;;25.20;96.70;;;;;;4856110;29;20085;-76
2022/07/15 05:14:03;;;;;;;4.72;3.00;;;25.30;96.70;;;;;;4872373;29;20053;-76
2022/07/15 05:16:32;;;;;;;5.55;3.28;;;25.30;96.70;;;;;;4855675;29;20049;-76
2022/07/15 05:19:00;;;;;;;3.17;2.75;;;25.30;96.70;;;;;;4871681;29;20041;-77
2022/07/15 05:21:29;;;;;;;6.57;3.20;;;25.30;96.70;;;;;;4871732;29;20048;-76
2022/07/15 05:23:57;;;;;;;5.18;3.47;;;25.40;96.70;;;;;;4889174;29;20056;-76
2022/07/15 05:26:48;;;;;;;4.25;2.90;;;25.50;96.70;;;;;;4869961;29;20056;-77
2022/07/15 05:29:21;;;;;;;3.42;2.80;;;25.60;96.70;;;;;;4871805;29;20161;-76
2022/07/15 05:31:52;;;;;;;2.88;2.60;;;25.40;96.70;;;;;;4868891;29;20117;-77
2022/07/15 05:34:21;;;;;;;5.05;2.78;;;25.50;96.70;;;;;;4871325;29;20508;-76
2022/07/15 05:36:51;;;;;;;6.80;2.53;;;25.60;96.70;;;;;;4852345;29;20835;-76
2022/07/15 05:39:20;;;;;;;5.75;2.95;;;25.80;96.70;;;;;;4866105;29;20049;-77
2022/07/15 05:41:50;;;;;;;4.85;3.15;;;25.80;96.70;;;;;;4869989;29;20064;-76
2022/07/15 05:44:18;;;;;;;4.38;2.97;;;25.90;96.70;;;;;;4866313;29;20139;-76
2022/07/15 05:46:50;;;;;;;3.38;2.72;;;25.90;96.70;;;;;;4867412;29;20052;-77
2022/07/15 05:49:21;;;;;;;5.40;3.10;;;25.90;96.70;;;;;;4857840;29;20045;-77
2022/07/15 05:51:52;;;;;;;5.57;2.92;;;25.90;96.70;;;;;;4884702;29;20053;-77
2022/07/15 05:54:29;;;;;;;5.53;3.08;;;25.80;96.70;;;;;;4855883;29;20049;-77
2022/07/15 05:56:59;;;;;;;6.00;3.10;;;25.80;96.70;;;;;;4870384;29;20048;-77
2022/07/15 05:59:27;;;;;;;5.88;3.10;;;25.80;96.70;;;;;;4875019;29;20051;-77
2022/07/15 06:01:55;;;;;;;5.28;3.00;;;25.90;96.70;;;;;;4870229;29;20056;-76
2022/07/15 06:04:26;;;;;;;3.97;3.58;;;25.90;96.70;;;;;;4882725;29;20060;-77
2022/07/15 06:06:54;;;;;;;6.30;4.15;;;25.90;96.70;;;;;;4869771;29;20049;-76
2022/07/15 06:09:22;;;;;;;4.35;3.28;;;25.90;96.70;;;;;;4853033;29;20053;-77
2022/07/15 06:11:50;;;;;;;6.65;3.85;;;26.00;96.70;;;;;;4885773;29;20088;-76
2022/07/15 06:14:21;;;;;;;3.63;3.05;;;26.20;96.70;;;;;;4858268;29;20041;-77
2022/07/15 06:16:50;;;;;;;5.22;3.83;;;26.20;96.70;;;;;;4870238;29;20049;-76
2022/07/15 06:19:19;;;;;;;8.00;4.70;;;26.30;96.70;;;;;;4885869;29;20461;-76
2022/07/15 06:21:47;;;;;;;7.47;5.13;;;26.30;96.70;;;;;;4870843;29;20147;-76
2022/07/15 06:24:16;;;;;;;7.38;4.47;;;26.20;96.70;;;;;;4872327;29;20053;-76
2022/07/15 06:26:43;;;;;;;3.67;3.28;;;26.30;96.70;;;;;;4869245;29;20504;-76
2022/07/15 06:29:11;;;;;;;13.00;4.00;;;26.30;96.70;;;;;;4871981;29;20477;-85
2022/07/15 06:31:41;;;;;;;10.32;3.63;;;26.30;96.70;;;;;;4855784;29;20049;-81
2022/07/15 06:34:09;;;;;;;7.45;3.60;;;26.30;96.70;;;;;;4886225;29;20106;-82
2022/07/15 06:36:37;;;;;;;11.73;4.00;;;26.30;96.70;;;;;;4871612;29;20041;-82
2022/07/15 06:39:05;;;;;;;9.45;4.80;;;26.30;96.70;;;;;;4856037;29;20072;-85
2022/07/15 06:41:34;;;;;;;6.35;3.85;;;26.20;96.70;;;;;;4869738;29;20117;-77
2022/07/15 06:44:04;;;;;;;5.72;3.55;;;26.30;96.70;;;;;;4884884;29;20056;-78
2022/07/15 06:46:43;;;;;;;8.40;4.40;;;26.40;96.70;;;;;;4867920;29;20054;-80
2022/07/15 06:49:11;;;;;;;5.38;3.80;;;26.50;96.70;;;;;;4869680;29;20053;-81
2022/07/15 06:51:39;;;;;;;6.63;4.25;;;26.60;96.70;;;;;;4858038;29;20041;-77
2022/07/15 06:54:07;;;;;;;6.95;4.63;;;26.70;96.70;;;;;;4870213;29;20053;-80
2022/07/15 06:56:38;;;;;;;9.13;4.57;;;26.70;96.70;;;;;;4867589;29;20045;-79
2022/07/15 06:59:06;;;;;;;8.25;4.63;;;26.70;96.70;;;;;;4855108;29;20060;-82
2022/07/15 07:01:33;;;;;;;10.30;4.53;;;26.80;96.70;;;;;;4855931;29;20068;-80
2022/07/15 07:04:04;;;;;;;10.13;4.57;;;26.80;96.70;;;;;;4854483;29;20576;-80
2022/07/15 07:06:33;;;;;;;6.75;4.72;;;26.90;96.70;;;;;;4871540;29;20393;-82
2022/07/15 07:09:03;;;;;;;7.60;5.70;;;26.90;96.70;;;;;;4856528;29;20120;-81
2022/07/15 07:11:32;;;;;;;7.43;4.63;;;26.80;96.70;;;;;;4874029;29;20048;-83
2022/07/15 07:14:01;;;;;;;8.93;4.75;;;26.90;96.70;;;;;;4871847;29;20056;-82
2022/07/15 07:16:29;;;;;;;7.95;5.25;;;26.90;96.70;;;;;;4873101;29;20047;-81
2022/07/15 07:18:57;;;;;;;10.40;4.55;;;27.00;96.70;;;;;;4871720;29;20041;-83
2022/07/15 07:21:27;;;;;;;7.30;4.53;;;27.00;96.70;;;;;;4867619;29;20059;-82
2022/07/15 07:23:59;;;;;;;7.57;4.63;;;26.90;96.70;;;;;;4891053;29;20401;-84
2022/07/15 07:26:27;;;;;;;5.55;4.25;;;26.80;96.70;;;;;;4854405;29;20041;-84
2022/07/15 07:28:55;;;;;;;6.28;4.07;;;26.90;96.70;;;;;;4873509;29;20077;-81
2022/07/15 07:31:26;;;;;;;6.15;4.72;;;27.00;96.70;;;;;;4871317;29;20036;-80
2022/07/15 07:33:58;;;;;;;8.30;3.88;;;27.10;96.70;;;;;;4869779;29;20125;-80
2022/07/15 07:36:28;;;;;;;7.05;4.32;;;27.30;96.70;;;;;;4875516;29;20053;-82
2022/07/15 07:38:56;;;;;;;6.30;4.07;;;27.30;96.70;;;;;;4892541;29;20055;-80
2022/07/15 07:41:24;;;;;;;3.33;3.03;;;27.30;96.70;;;;;;4871481;29;20045;-80
2022/07/15 07:43:51;;;;;;;3.80;3.50;;;27.30;96.70;;;;;;4875020;29;20089;-81
2022/07/15 07:46:19;;;;;;;3.70;3.10;;;27.40;96.70;;;;;;4873556;29;20444;-79
2022/07/15 07:48:47;;;;;;;5.57;3.20;;;27.50;96.70;;;;;;4871392;29;20060;-80
2022/07/15 07:51:17;;;;;;;4.90;3.42;;;27.60;96.70;;;;;;4871687;29;20060;-80
2022/07/15 07:53:46;;;;;;;5.35;3.30;;;27.70;96.70;;;;;;4871894;29;20136;-82
2022/07/15 07:56:14;;;;;;;4.18;3.25;;;27.70;96.70;;;;;;4875674;29;20064;-81
2022/07/15 07:58:42;;;;;;;4.38;2.95;;;27.70;96.70;;;;;;4871444;29;20068;-81
2022/07/15 08:01:10;;;;;;;6.00;3.67;;;27.80;96.70;;;;;;4871099;29;20622;-81
2022/07/15 08:03:38;;;;;;;4.53;3.22;;;27.80;96.70;;;;;;4871708;29;20564;-82
2022/07/15 08:06:06;;;;;;;4.90;3.15;;;27.70;96.70;;;;;;4872639;29;20448;-82
2022/07/15 08:08:34;;;;;;;4.97;3.47;;;27.80;96.70;;;;;;4875177;29;20051;-82
2022/07/15 08:11:03;;;;;;;5.15;2.90;;;27.90;96.70;;;;;;4871635;29;20411;-83
2022/07/15 08:13:31;;;;;;;5.88;3.20;;;27.80;96.70;;;;;;4872503;29;20159;-83
2022/07/15 08:15:59;;;;;;;5.80;3.05;;;27.90;96.70;;;;;;4872394;29;20053;-81
2022/07/15 08:18:35;;;;;;;4.75;3.42;;;28.00;96.70;;;;;;4873257;29;20045;-83
2022/07/15 08:21:04;;;;;;;4.63;3.25;;;28.00;96.70;;;;;;4868271;29;20045;-84
2022/07/15 08:23:32;;;;;;;4.50;2.78;;;27.90;96.70;;;;;;4868291;29;20089;-85
2022/07/15 08:26:00;;;;;;;6.28;3.53;;;28.00;96.70;;;;;;4872414;29;20061;-83
2022/07/15 08:28:29;;;;;;;4.00;3.50;;;28.10;96.70;;;;;;4872132;29;20104;-84
2022/07/15 08:31:19;;;;;;;4.93;3.28;;;28.10;96.70;;;;;;4873955;29;20041;-84
2022/07/15 08:33:50;;;;;;;6.80;3.08;;;28.20;96.70;;;;;;4876273;29;20201;-82
2022/07/15 08:36:18;;;;;;;6.68;3.30;;;28.20;96.70;;;;;;4873009;29;20123;-81
2022/07/15 08:38:48;;;;;;;8.68;3.15;;;28.20;96.70;;;;;;4874678;29;20057;-82
2022/07/15 08:41:17;;;;;;;4.32;3.15;;;28.30;96.70;;;;;;4876838;29;20290;-82
2022/07/15 08:43:48;;;;;;;5.18;3.38;;;28.40;96.70;;;;;;4874562;29;20452;-82
2022/07/15 08:46:16;;;;;;;5.85;4.15;;;28.40;96.70;;;;;;4873674;29;20128;-81
2022/07/15 08:48:51;;;;;;;6.57;3.72;;;28.50;96.70;;;;;;4871430;29;20504;-77
2022/07/15 08:51:23;;;;;;;4.22;3.47;;;28.60;96.70;;;;;;4873694;29;20076;-79
2022/07/15 08:53:52;;;;;;;5.68;3.72;;;28.70;96.70;;;;;;4871436;29;20366;-79
2022/07/15 08:56:20;;;;;;;8.55;4.10;;;28.80;96.70;;;;;;4871838;29;20041;-79
2022/07/15 08:58:52;;;;;;;5.97;3.53;;;28.80;96.70;;;;;;4869141;29;20056;-79
2022/07/15 09:01:26;;;;;;;3.90;3.50;;;28.80;96.70;;;;;;4870850;29;20048;-80
2022/07/15 09:03:55;;;;;;;4.38;3.17;;;28.80;96.70;;;;;;4884757;29;20057;-79
2022/07/15 09:06:34;;;;;;;3.90;3.53;;;28.90;96.70;;;;;;4886923;29;20510;-79
2022/07/15 09:09:20;;;;;;;;;;;29.00;96.70;;;;;;4870103;29;20112;-81
2022/07/15 09:11:54;;;;;;;8.07;3.70;;;29.20;96.70;;;;;;4870318;29;20589;-80
2022/07/15 09:14:34;;;;;;;5.03;3.60;;;29.30;96.70;;;;;;4872972;29;20097;-78
2022/07/15 09:17:19;;;;;;;5.53;4.03;;;29.20;96.70;;;;;;4884623;29;20136;-79
2022/07/15 09:19:58;;;;;;;5.90;3.92;;;29.20;96.70;;;;;;4883187;29;20049;-77
2022/07/15 09:22:27;;;;;;;5.53;3.60;;;29.40;96.70;;;;;;4870589;29;20423;-77
2022/07/15 09:25:04;;;;;;;6.65;4.20;;;29.40;96.70;;;;;;4870316;29;20065;-77
2022/07/15 09:27:33;;;;;;;6.00;4.10;;;29.50;96.70;;;;;;4869171;29;20475;-77
2022/07/15 09:36:10;;;;;;;5.63;3.90;;;29.50;96.70;;;;;;4868381;29;20049;-78
2022/07/15 09:38:51;;;;;;;3.50;3.20;;;29.60;96.70;;;;;;4880231;29;20827;-76
2022/07/15 09:41:26;;;;;;;5.72;3.10;;;29.70;96.70;;;;;;4870596;29;20052;-77
2022/07/15 09:43:58;;;;;;;3.33;3.05;;;29.70;96.70;;;;;;4884001;29;20598;-76
2022/07/15 09:46:38;;;;;;;5.53;2.78;;;29.80;96.70;;;;;;4869811;29;20053;-76
2022/07/15 09:49:07;;;;;;;7.15;3.45;;;30.00;96.70;;;;;;4878098;29;20064;-76
2022/07/15 09:51:45;;;;;;;19.25;4.03;;;30.00;96.70;;;;;;4869138;29;20491;-75
2022/07/15 09:54:13;;;;;;;5.07;2.75;;;30.10;96.70;;;;;;4870696;29;20881;-76
2022/07/15 09:56:42;;;;;;;3.42;2.33;;;30.20;96.70;;;;;;4852893;29;20065;-77
2022/07/15 09:59:10;;;;;;;3.10;2.13;;;30.20;96.70;;;;;;4868368;29;20052;-77
2022/07/15 10:01:42;;;;;;;4.07;2.30;;;30.40;96.70;;;;;;4870482;29;20800;-77
2022/07/15 10:04:11;;;;;;;2.50;2.30;;;30.50;96.70;;;;;;4873531;29;20564;-80
2022/07/15 10:06:39;;;;;;;2.30;2.08;;;30.60;96.70;;;;;;4871288;29;20053;-82
2022/07/15 10:09:10;;;;;;;2.40;1.85;;;30.70;96.70;;;;;;4870624;29;20061;-78
2022/07/15 10:11:48;;;;;;;3.80;2.10;;;30.60;96.70;;;;;;4870471;29;20555;-78
2022/07/15 10:14:36;;;;;;;3.88;2.00;;;30.60;96.70;;;;;;4870233;29;20098;-76
2022/07/15 10:17:38;;;;;;;2.65;2.03;;;30.90;96.70;;;;;;4868586;29;20061;-78
2022/07/15 10:20:37;;;;;;;4.10;2.15;;;31.00;96.70;;;;;;4861008;29;20295;-77
2022/07/15 10:23:18;;;;;;;4.00;2.30;;;30.90;96.70;;;;;;4871631;29;20068;-76
2022/07/15 10:26:00;;;;;;;3.63;1.92;;;31.10;96.70;;;;;;4870971;29;20539;-78
2022/07/15 10:28:47;;;;;;;2.75;1.70;;;31.20;96.70;;;;;;4884659;29;20060;-78
2022/07/15 10:31:20;;;;;;;3.08;2.28;;;31.30;96.70;;;;;;4854415;29;20098;-78
2022/07/15 10:34:23;;;;;;;2.60;2.03;;;31.40;96.70;;;;;;4869069;29;20451;-78
2022/07/15 10:37:03;;;;;;;2.00;1.80;;;31.60;96.70;;;;;;4881221;29;20512;-80
2022/07/15 10:39:51;;;;;;;3.40;1.90;;;31.80;96.70;;;;;;4869263;29;20052;-80
2022/07/15 10:42:20;;;;;;;2.42;2.05;;;32.00;96.70;;;;;;4871296;29;20461;-80
2022/07/15 10:45:02;;;;;;;4.78;1.80;;;32.10;96.70;;;;;;4864820;29;20049;-79
2022/07/15 10:47:30;;;;;;;4.40;2.00;;;32.10;96.70;;;;;;4869368;29;20528;-80
2022/07/15 10:50:00;;;;;;;2.65;2.30;;;32.10;96.70;;;;;;4867433;29;20040;-80
2022/07/15 10:52:30;;;;;;;2.47;1.77;;;32.00;96.70;;;;;;4870037;29;20563;-81
2022/07/15 10:55:06;;;;;;;2.28;2.08;;;32.20;96.70;;;;;;4884451;29;20563;-80
2022/07/15 10:57:53;;;;;;;3.65;2.10;;;32.30;96.70;;;;;;4868048;29;20059;-81
2022/07/15 11:00:31;;;;;;;3.30;2.10;;;32.30;96.70;;;;;;4870866;29;20589;-78
2022/07/15 11:03:05;;;;;;;2.10;1.67;;;32.50;96.70;;;;;;4884669;29;20382;-79
2022/07/15 11:05:59;;;;;;;1.42;1.33;;;32.60;96.70;;;;;;4871899;29;20049;-81
2022/07/15 11:08:50;;;;;;;2.78;1.52;;;32.60;96.70;;;;;;4881871;29;20064;-79
2022/07/15 11:11:50;;;;;;;1.85;1.55;;;32.60;96.70;;;;;;4868808;29;20501;-80
2022/07/15 11:14:47;;;;;;;2.88;1.40;;;32.70;96.70;;;;;;4880333;29;20060;-79
2022/07/15 11:17:18;;;;;;;1.50;1.40;;;32.80;96.70;;;;;;4870541;29;20101;-80
2022/07/15 11:19:48;;;;;;;1.50;1.10;;;33.00;96.70;;;;;;4885702;29;20077;-80
2022/07/15 11:22:21;;;;;;;2.65;1.38;;;33.20;96.70;;;;;;4853178;29;20049;-80
2022/07/15 11:24:50;;;;;;;3.10;1.55;;;33.20;96.70;;;;;;4868545;29;20080;-79
2022/07/15 11:27:18;;;;;;;3.45;1.40;;;33.20;96.70;;;;;;4870874;29;20136;-81
2022/07/15 11:29:50;;;;;;;2.72;1.40;;;33.20;96.70;;;;;;4850229;29;20611;-80
2022/07/15 11:32:20;;;;;;;4.18;1.52;;;33.30;96.70;;;;;;4810875;29;20062;-79
2022/07/15 11:34:52;;;;;;;1.80;1.50;;;33.30;96.70;;;;;;4833946;29;20058;-78
2022/07/15 11:37:26;;;;;;;1.30;1.20;;;33.40;96.70;;;;;;4846706;29;20046;-80
2022/07/15 11:40:10;;;;;;;5.10;1.42;;;33.50;96.70;;;;;;4839843;29;20425;-79
2022/07/15 11:45:34;;;;;;;1.13;1.02;;;33.70;96.70;;;;;;4851881;29;20965;-82
2022/07/15 11:48:06;;;;;;;1.63;1.35;;;33.60;96.70;;;;;;4851695;29;20389;-83
2022/07/15 11:50:35;;;;;;;2.78;1.38;;;33.70;96.70;;;;;;4835230;29;20076;-78
2022/07/15 11:53:14;;;;;;;1.92;1.55;;;33.60;96.70;;;;;;4841632;29;20739;-81
2022/07/15 11:55:53;;;;;;;3.55;1.63;;;33.50;96.70;;;;;;4834617;29;20560;-81
2022/07/15 11:58:27;;;;;;;2.08;1.25;;;33.60;96.30;;;;;;4857800;29;20079;-82
2022/07/15 12:00:56;;;;;;;2.90;1.25;;;33.70;95.70;;;;;;4836925;29;20065;-81
2022/07/15 12:03:29;;;;;;;2.97;0.98;;;33.60;95.70;;;;;;4823381;29;20049;-84
2022/07/15 12:06:09;;;;;;;2.30;1.48;;;33.80;96.70;;;;;;4851592;29;20048;-83
2022/07/15 12:08:41;;;;;;;2.58;1.20;;;33.70;96.60;;;;;;4875714;29;20306;-80
2022/07/15 12:11:15;;;;;;;1.30;1.10;;;33.90;93.80;;;;;;4887251;29;20049;-79
2022/07/15 12:13:47;;;;;;;2.95;1.13;;;34.10;95.00;;;;;;4873914;29;20176;-81
2022/07/15 12:16:19;;;;;;;2.75;1.00;;;34.10;94.80;;;;;;4886432;29;20069;-79
2022/07/15 12:18:48;;;;;;;1.40;1.00;;;34.10;94.80;;;;;;4870387;29;20059;-82
2022/07/15 12:21:16;;;;;;;3.33;1.20;;;34.10;95.80;;;;;;4873154;29;20081;-81
2022/07/15 12:24:00;;;;;;;2.55;1.30;;;34.10;95.70;;;;;;4857663;29;20464;-81
2022/07/15 12:26:29;;;;;;;1.73;1.23;;;34.10;93.00;;;;;;4874120;29;20514;-80
2022/07/15 12:28:59;;;;;;;2.97;1.23;;;34.20;95.50;;;;;;4871779;29;21658;-80
2022/07/15 12:31:28;;;;;;;1.75;1.33;;;34.10;93.80;;;;;;4889098;29;20393;-81
2022/07/15 12:33:57;;;;;;;1.15;1.00;;;33.90;96.30;;;;;;4871821;29;20141;-79
2022/07/15 12:36:31;;;;;;;1.50;1.10;;;34.10;95.40;;;;;;4872047;29;20049;-80
2022/07/15 12:39:07;;;;;;;4.10;1.70;;;33.90;94.70;;;;;;4886990;29;20057;-81
2022/07/15 12:41:37;;;;;;;1.63;1.02;;;34.00;96.60;;;;;;4872094;29;20049;-80
2022/07/15 12:44:06;;;;;;;6.00;1.70;;;34.00;96.00;;;;;;4855981;29;20523;-79
2022/07/15 12:46:56;;;;;;;1.65;1.10;;;34.00;94.90;;;;;;4867646;29;20060;-82
2022/07/15 12:49:39;;;;;;;2.90;1.35;;;33.80;96.70;;;;;;4870218;29;20543;-79
2022/07/15 12:52:19;;;;;;;2.05;1.40;;;33.70;96.70;;;;;;4871803;29;20099;-78
2022/07/15 12:54:51;;;;;;;22.02;2.63;;;33.70;96.70;;;;;;4871264;29;20052;-79
2022/07/15 12:57:28;;;;;;;9.45;1.80;;;33.70;96.70;;;;;;4856494;29;20630;-78
2022/07/15 12:59:58;;;;;;;6.13;1.20;;;33.90;96.00;;;;;;4887392;29;20049;-79
2022/07/15 13:02:28;;;;;;;4.00;1.35;;;33.80;94.60;;;;;;4872919;29;20053;-78
2022/07/15 13:04:56;;;;;;;3.70;1.27;;;33.80;94.50;;;;;;4875262;29;20049;-77
2022/07/15 13:07:24;;;;;;;3.90;1.70;;;33.80;95.20;;;;;;4870213;29;20412;-80
2022/07/15 13:09:55;;;;;;;14.13;2.78;;;33.80;95.70;;;;;;4870489;29;20072;-79
2022/07/15 13:12:23;;;;;;;8.55;1.45;;;33.90;96.60;;;;;;4869492;29;20048;-80
2022/07/15 13:14:51;;;;;;;4.85;1.67;;;34.20;95.10;;;;;;4856375;29;20607;-79
2022/07/15 13:17:19;;;;;;;2.75;1.23;;;34.40;94.90;;;;;;4870374;29;20068;-78
2022/07/15 13:19:47;;;;;;;3.25;1.30;;;34.30;94.80;;;;;;4872532;29;20662;-78
2022/07/15 13:22:16;;;;;;;1.63;1.10;;;34.40;93.80;;;;;;4871255;29;20646;-78
2022/07/15 13:24:44;;;;;;;5.95;1.80;;;34.50;94.50;;;;;;4871127;29;20068;-78